Humidity-temperature Sensor

Selected Measurement Type: Air Temperature

 
Air Temperature [°C]     6 entries per hour
Showing data from 1/14/2021 (00:00:00 Z) to 1/13/2021 (00:01:00 Z)
Previous Next [ Day | 3-Days | 7-Days ]
First Last
Prev [ Day | 3-Days | 7-Days ] Next
First Last

Start Time:     :
End Time:     :     
Time (in GMT) :00 :50 :40 :30 :20 :10
Previous Next [ Day | 3-Days | 7-Days ]
First Last
Prev [ Day | 3-Days | 7-Days ] Next
First Last


123 => good data
MM => data is determined as missing
-- => data not received/configured
Back to Top Back to Top
1/14/2021 00:00 to 23:10 23.49 23.52 23.46 23.46 23.47 23.49
1/13/2021 23:00 to 22:10 23.54 23.55 23.54 23.64 23.60 23.59
1/13/2021 22:00 to 21:10 23.64 23.69 23.76 23.74 23.72 23.80
1/13/2021 21:00 to 20:10 23.78 23.78 23.90 24.08 24.03 23.95
1/13/2021 20:00 to 19:10 24.00 23.89 23.93 23.93 23.92 23.88
1/13/2021 19:00 to 18:10 23.90 23.94 23.87 23.94 23.86 23.95
1/13/2021 18:00 to 17:10 23.96 24.03 23.99 24.03 24.10 24.08
1/13/2021 17:00 to 16:10 24.13 24.14 24.10 24.10 24.08 23.97
1/13/2021 16:00 to 15:10 23.64 23.75 23.59 23.51 23.40 23.34
1/13/2021 15:00 to 14:10 23.20 23.17 23.18 23.10 23.05 23.03
1/13/2021 14:00 to 13:10 22.99 22.98 22.96 22.94 22.91 22.90
1/13/2021 13:00 to 12:10 22.87 22.83 22.83 22.82 22.81 22.81
1/13/2021 12:00 to 11:10 22.80 22.80 22.80 22.83 22.83 22.84
1/13/2021 11:00 to 10:10 22.83 22.83 22.81 22.82 22.82 22.82
1/13/2021 10:00 to 9:10 22.82 22.82 22.83 22.84 22.82 22.81
1/13/2021 09:00 to 8:10 22.84 22.83 22.82 22.83 22.86 22.86
1/13/2021 08:00 to 7:10 22.87 22.90 22.90 22.94 22.92 22.90
1/13/2021 07:00 to 6:10 22.92 22.92 22.95 22.96 22.97 22.98
1/13/2021 06:00 to 5:10 22.99 23.01 23.02 23.03 23.03 23.04
1/13/2021 05:00 to 4:10 23.03 23.02 23.04 23.07 23.08 23.08
1/13/2021 04:00 to 3:10 23.09 23.10 23.10 23.11 23.14 23.16
1/13/2021 03:00 to 2:10 23.18 23.17 23.16 23.17 23.17 23.17
1/13/2021 02:00 to 1:10 23.17 23.20 23.18 23.23 23.24 23.25
1/13/2021 01:00 to 0:10 23.24 23.23 23.23 23.29 23.29 23.30